Portada
METAR-TAF:

METAR-TAF

Aeropuertos :

Seyresse

Dax, Francia

latitud: 43-41N, longitud: 001-04W, altitud: 32 m

Observación

El informe se hizo hace 1 hora y 2 minutos, a las 07:00 UTC
Viento 2 kt con dirección variable
Temperatura 18°C
Humedad 94%
Presión 1018 hPa
Visibilidad: 9000 m
Nubes dispersas a una altura de 4000 ft
Niebla baja

METAR: LFBY 140700Z VRB02KT 9000 MIFG SCT040 18/17 Q1018

Hora: 10:02 (08:02 UTC)

Pronóstico

El informe se hizo hace 2 minutos, a las 08:00 UTC
Pronóstico válido del 13 a las 09 UTC al 13 a las 18 UTC
Viento 10 kt del oeste-suroeste con ráfagas de 20 kt
Visibilidad 10 km o más
Cielo nuboso a una altura de 1800 ft
Temporalmente
del 13 a las 09 UTC al 13 a las 11 UTC
Nubes dispersas a una altura de 1000 ft
Cielo nuboso a una altura de 1500 ft
lluvia ligera

TAF: LFBY 130800Z 1309/1318 25010G20KT 9999 BKN018 TEMPO 1309/1311 -RA SCT010 BKN015

Observaciones y pronósticos meteorológicos de más de 4000 aeropuertos (mensajes METAR y TAF).

Los puntos amarillos y rojos representan las estaciones disponibles.

Ponga el ratón en el punto deseado para ver el nombre de la estación.

Haga clic para ver las observaciones y los pronósticos meteorológicos.

Para cambiar el mapa : haga clic en los botones verdes con una cruz de color negro para hacer un zoom, en el botón verde con un guión para alejar o en las flechas verdes para mapas adyacentes.


METAR-TAF: